Pond, Missouri
Current Conditions -  °F | °C
As of 12:54 PM on Sunday 21 Dec 2014 (Local Time) from KSUS Reporting Station
Overcast Overcast  
Wind Chill: 40°   Ceiling: 3900
Heat Index: 44°   Visibility: 10mi
Dew Point: 34°   Wind: 8mph
Humidity: 68%   Direction: 160°SSE
Pressure: 30.06"   Gusts: 17mph
Location:  38.5699°N, 90.6264°W
Report Text: KSUS 211854Z 16007G15KT 10SM OVC039 07/01 A3006 RMK AO2 SLP185 T00670011
Loading
Personal Weather Stations






























Interactive Weather Map New forecast layout! Learn more

10-Day Weather Forecast

Advertisements
Track Severe Weather on mobile